createdAt,value
2022-11-14T00:00:50.432Z,77.72
2022-11-14T00:10:52.289Z,78.58
2022-11-14T00:20:54.061Z,78.84
2022-11-14T00:30:55.363Z,79.12
2022-11-14T00:40:56.694Z,78.80
2022-11-14T00:50:58.076Z,79.54
2022-11-14T01:00:59.649Z,80.16
2022-11-14T01:11:01.090Z,80.75
2022-11-14T01:21:06.470Z,80.60
2022-11-14T01:31:12.233Z,80.60
2022-11-14T01:41:15.856Z,80.56
2022-11-14T01:51:31.409Z,80.58
2022-11-14T02:01:35.894Z,81.46
2022-11-14T02:11:42.212Z,81.49
2022-11-14T02:21:43.570Z,81.59
2022-11-14T02:31:44.904Z,81.99
2022-11-14T02:41:46.297Z,81.87
2022-11-14T02:51:47.638Z,82.21
2022-11-14T03:01:49.045Z,82.94
2022-11-14T03:11:50.389Z,83.95
2022-11-14T03:21:51.889Z,83.87
2022-11-14T03:31:53.350Z,84.27
2022-11-14T03:41:54.671Z,83.91
2022-11-14T03:51:55.996Z,83.48
2022-11-14T04:01:57.319Z,83.14
2022-11-14T04:11:58.663Z,84.39
2022-11-14T04:22:00.024Z,84.06
2022-11-14T04:32:01.367Z,84.54
2022-11-14T04:42:02.714Z,85.01
2022-11-14T04:52:04.230Z,84.33
2022-11-14T05:02:05.587Z,84.92
2022-11-14T05:12:07.025Z,85.02
2022-11-14T05:22:08.356Z,85.15
2022-11-14T05:32:13.699Z,86.80
2022-11-14T05:42:17.517Z,85.70
2022-11-14T05:52:18.849Z,85.45
2022-11-14T06:02:20.331Z,85.36
2022-11-14T06:12:21.656Z,87.08
2022-11-14T06:22:23.055Z,86.12
2022-11-14T06:32:24.391Z,85.98
2022-11-14T06:42:25.708Z,85.96
2022-11-14T06:52:27.255Z,86.17
2022-11-14T07:02:28.589Z,86.80
2022-11-14T07:12:29.974Z,86.13
2022-11-14T07:22:31.327Z,85.95
2022-11-14T07:32:32.703Z,86.42
2022-11-14T07:42:34.063Z,86.47
2022-11-14T07:52:35.454Z,85.96
2022-11-14T08:02:36.818Z,87.44
2022-11-14T08:12:39.368Z,87.42
2022-11-14T08:22:40.680Z,87.73
2022-11-14T08:32:41.991Z,88.06
2022-11-14T08:42:43.344Z,88.96
2022-11-14T08:52:50.915Z,88.68
2022-11-14T09:02:52.368Z,88.33
2022-11-14T09:13:00.128Z,87.65
2022-11-14T09:23:02.373Z,88.88
2022-11-14T09:33:11.121Z,87.54
2022-11-14T09:43:50.746Z,86.58
2022-11-14T09:53:56.075Z,86.84
2022-11-14T10:04:09.664Z,85.50
2022-11-14T10:14:37.931Z,85.50
2022-11-14T10:24:51.353Z,85.32
2022-11-14T10:35:01.627Z,84.24
2022-11-14T10:45:10.691Z,84.25
2022-11-14T10:55:17.609Z,84.89
2022-11-14T11:05:22.263Z,85.10
2022-11-14T11:15:30.253Z,85.40
2022-11-14T11:25:33.513Z,84.90
2022-11-14T11:35:35.405Z,84.54
2022-11-14T11:45:37.776Z,84.11
2022-11-14T11:56:01.052Z,84.13
2022-11-14T12:06:13.874Z,83.71
2022-11-14T12:16:25.828Z,83.80
2022-11-14T12:27:06.423Z,84.18
2022-11-14T12:37:14.955Z,83.25
2022-11-14T12:47:22.165Z,83.41
2022-11-14T12:57:47.665Z,83.07
2022-11-14T13:07:56.408Z,82.32
2022-11-14T13:18:31.809Z,82.27
2022-11-14T13:28:35.972Z,82.40
2022-11-14T13:38:59.952Z,82.49
2022-11-14T13:49:19.998Z,82.64
2022-11-14T13:59:49.191Z,83.15
2022-11-14T14:10:29.866Z,83.27
2022-11-14T14:20:33.906Z,83.36
2022-11-14T14:30:35.294Z,83.51
2022-11-14T14:40:40.067Z,83.63
2022-11-14T14:50:48.049Z,84.14
2022-11-14T15:01:20.419Z,83.78
2022-11-14T15:11:22.465Z,83.59
2022-11-14T15:21:29.505Z,84.12
2022-11-14T15:31:30.923Z,83.95
2022-11-14T15:41:33.503Z,84.01
2022-11-14T15:51:48.291Z,83.96
2022-11-14T16:01:54.916Z,84.02
2022-11-14T16:11:56.419Z,84.31
2022-11-14T16:22:02.859Z,84.48
2022-11-14T16:32:04.563Z,84.31
2022-11-14T16:42:07.155Z,84.43
2022-11-14T16:52:10.734Z,84.33
2022-11-14T17:02:15.485Z,84.85
2022-11-14T17:12:16.873Z,84.82
2022-11-14T17:22:19.681Z,84.63
2022-11-14T17:32:20.998Z,84.90
2022-11-14T17:42:22.399Z,85.01
2022-11-14T17:52:23.744Z,85.09
2022-11-14T18:02:25.105Z,85.66
2022-11-14T18:12:26.476Z,85.56
2022-11-14T18:22:28.362Z,85.92
2022-11-14T18:32:29.761Z,86.01
2022-11-14T18:42:31.088Z,86.95
2022-11-14T18:52:32.501Z,86.49
2022-11-14T19:02:33.952Z,86.71
2022-11-14T19:12:35.375Z,87.38
2022-11-14T19:22:36.689Z,87.11
2022-11-14T19:32:38.026Z,86.53
2022-11-14T19:42:39.387Z,87.33
2022-11-14T19:52:40.707Z,86.86
2022-11-14T20:02:45.867Z,87.21
2022-11-14T20:12:47.205Z,87.34
2022-11-14T20:22:48.624Z,87.73
2022-11-14T20:32:49.961Z,87.49
2022-11-14T20:42:51.329Z,88.79
2022-11-14T20:52:52.678Z,88.68
2022-11-14T21:02:54.777Z,89.36
2022-11-14T21:13:22.263Z,89.20
2022-11-14T21:23:23.608Z,89.09
2022-11-14T21:33:29.543Z,88.86
2022-11-14T21:43:31.871Z,88.90
2022-11-14T21:53:34.738Z,88.44
2022-11-14T22:03:55.672Z,89.06
2022-11-14T22:13:58.120Z,89.25
2022-11-14T22:23:59.596Z,88.30
2022-11-14T22:34:00.988Z,88.58
2022-11-14T22:44:02.380Z,88.67
2022-11-14T22:54:03.879Z,89.53
2022-11-14T23:04:05.370Z,88.26
2022-11-14T23:14:06.777Z,89.17
2022-11-14T23:24:13.510Z,90.18
2022-11-14T23:34:14.847Z,89.35
2022-11-14T23:44:16.215Z,91.03
2022-11-14T23:54:17.547Z,90.00
